sensor_id;sensor_type;location;lat;lon;timestamp;temperature;humidity
52543;DHT22;38449;52.696;6.186;2023-02-28T00:02:16;4.10;99.90
52543;DHT22;38449;52.696;6.186;2023-02-28T00:04:45;4.10;99.90
52543;DHT22;38449;52.696;6.186;2023-02-28T00:07:18;4.10;99.90
52543;DHT22;38449;52.696;6.186;2023-02-28T00:09:45;4.10;99.90
52543;DHT22;38449;52.696;6.186;2023-02-28T00:12:11;4.10;99.90
52543;DHT22;38449;52.696;6.186;2023-02-28T00:14:37;4.10;99.90
52543;DHT22;38449;52.696;6.186;2023-02-28T00:17:04;4.10;99.90
52543;DHT22;38449;52.696;6.186;2023-02-28T00:19:30;4.20;99.90
52543;DHT22;38449;52.696;6.186;2023-02-28T00:21:56;4.20;99.90
52543;DHT22;38449;52.696;6.186;2023-02-28T00:24:22;4.20;99.90
52543;DHT22;38449;52.696;6.186;2023-02-28T00:26:48;4.10;99.90
52543;DHT22;38449;52.696;6.186;2023-02-28T00:29:14;4.20;99.90
52543;DHT22;38449;52.696;6.186;2023-02-28T00:31:42;4.20;99.90
52543;DHT22;38449;52.696;6.186;2023-02-28T00:34:08;4.20;99.90
52543;DHT22;38449;52.696;6.186;2023-02-28T00:36:34;4.20;99.90
52543;DHT22;38449;52.696;6.186;2023-02-28T00:39:00;4.20;99.90
52543;DHT22;38449;52.696;6.186;2023-02-28T00:41:26;4.20;99.90
52543;DHT22;38449;52.696;6.186;2023-02-28T00:43:52;4.10;99.90
52543;DHT22;38449;52.696;6.186;2023-02-28T00:46:19;4.20;99.90
52543;DHT22;38449;52.696;6.186;2023-02-28T00:48:45;4.20;99.90
52543;DHT22;38449;52.696;6.186;2023-02-28T00:51:11;4.20;99.90
52543;DHT22;38449;52.696;6.186;2023-02-28T00:53:37;4.20;99.90
52543;DHT22;38449;52.696;6.186;2023-02-28T00:56:03;4.20;99.90
52543;DHT22;38449;52.696;6.186;2023-02-28T00:58:29;4.20;99.90
52543;DHT22;38449;52.696;6.186;2023-02-28T01:00:56;4.20;99.90
52543;DHT22;38449;52.696;6.186;2023-02-28T01:03:22;4.20;99.90
52543;DHT22;38449;52.696;6.186;2023-02-28T01:05:49;4.30;99.90
52543;DHT22;38449;52.696;6.186;2023-02-28T01:08:15;4.30;99.90
52543;DHT22;38449;52.696;6.186;2023-02-28T01:10:41;4.30;99.90
52543;DHT22;38449;52.696;6.186;2023-02-28T01:13:07;4.30;99.90
52543;DHT22;38449;52.696;6.186;2023-02-28T01:15:34;4.30;99.90
52543;DHT22;38449;52.696;6.186;2023-02-28T01:18:00;4.20;99.90
52543;DHT22;38449;52.696;6.186;2023-02-28T01:20:26;4.20;99.90
52543;DHT22;38449;52.696;6.186;2023-02-28T01:22:52;4.20;99.90
52543;DHT22;38449;52.696;6.186;2023-02-28T01:25:18;4.30;99.90
52543;DHT22;38449;52.696;6.186;2023-02-28T01:27:44;4.20;99.90
52543;DHT22;38449;52.696;6.186;2023-02-28T01:30:11;4.20;99.90
52543;DHT22;38449;52.696;6.186;2023-02-28T01:32:37;4.20;99.90
52543;DHT22;38449;52.696;6.186;2023-02-28T01:35:03;4.20;99.90
52543;DHT22;38449;52.696;6.186;2023-02-28T01:37:30;4.30;99.90
52543;DHT22;38449;52.696;6.186;2023-02-28T01:39:56;4.30;99.90
52543;DHT22;38449;52.696;6.186;2023-02-28T01:42:22;4.30;99.90
52543;DHT22;38449;52.696;6.186;2023-02-28T01:45:03;4.30;99.90
52543;DHT22;38449;52.696;6.186;2023-02-28T01:47:35;4.30;99.90
52543;DHT22;38449;52.696;6.186;2023-02-28T01:50:04;4.30;99.90
52543;DHT22;38449;52.696;6.186;2023-02-28T01:52:30;4.40;99.90
52543;DHT22;38449;52.696;6.186;2023-02-28T01:54:58;4.40;99.90
52543;DHT22;38449;52.696;6.186;2023-02-28T01:57:27;4.40;99.90
52543;DHT22;38449;52.696;6.186;2023-02-28T01:59:59;4.30;99.90
52543;DHT22;38449;52.696;6.186;2023-02-28T02:02:30;4.30;99.90
52543;DHT22;38449;52.696;6.186;2023-02-28T02:04:58;4.40;99.90
52543;DHT22;38449;52.696;6.186;2023-02-28T02:07:29;4.30;99.90
52543;DHT22;38449;52.696;6.186;2023-02-28T02:12:50;4.30;99.90
52543;DHT22;38449;52.696;6.186;2023-02-28T02:15:22;4.40;99.90
52543;DHT22;38449;52.696;6.186;2023-02-28T02:17:54;4.30;99.90
52543;DHT22;38449;52.696;6.186;2023-02-28T02:28:34;4.20;99.90
52543;DHT22;38449;52.696;6.186;2023-02-28T02:33:48;4.20;99.90
52543;DHT22;38449;52.696;6.186;2023-02-28T02:36:19;4.10;99.90
52543;DHT22;38449;52.696;6.186;2023-02-28T02:38:57;4.10;99.90
52543;DHT22;38449;52.696;6.186;2023-02-28T02:41:33;4.00;99.90
52543;DHT22;38449;52.696;6.186;2023-02-28T02:44:23;4.10;99.90
52543;DHT22;38449;52.696;6.186;2023-02-28T02:46:48;4.00;99.90
52543;DHT22;38449;52.696;6.186;2023-02-28T02:49:33;4.00;99.90
52543;DHT22;38449;52.696;6.186;2023-02-28T02:52:05;3.90;99.90
52543;DHT22;38449;52.696;6.186;2023-02-28T02:54:36;3.90;99.90
52543;DHT22;38449;52.696;6.186;2023-02-28T02:57:04;3.90;99.90
52543;DHT22;38449;52.696;6.186;2023-02-28T02:59:31;3.90;99.90
52543;DHT22;38449;52.696;6.186;2023-02-28T03:02:00;3.80;99.90
52543;DHT22;38449;52.696;6.186;2023-02-28T03:04:28;3.70;99.90
52543;DHT22;38449;52.696;6.186;2023-02-28T03:06:55;3.70;99.90
52543;DHT22;38449;52.696;6.186;2023-02-28T03:09:22;3.70;99.90
52543;DHT22;38449;52.696;6.186;2023-02-28T03:11:48;3.60;99.90
52543;DHT22;38449;52.696;6.186;2023-02-28T03:22:24;3.50;99.90
52543;DHT22;38449;52.696;6.186;2023-02-28T03:24:55;3.50;99.90
52543;DHT22;38449;52.696;6.186;2023-02-28T03:27:24;3.40;99.90
52543;DHT22;38449;52.696;6.186;2023-02-28T03:30:01;3.40;99.90
52543;DHT22;38449;52.696;6.186;2023-02-28T03:32:36;3.50;99.90
52543;DHT22;38449;52.696;6.186;2023-02-28T03:35:16;3.40;99.90
52543;DHT22;38449;52.696;6.186;2023-02-28T03:37:48;3.40;99.90
52543;DHT22;38449;52.696;6.186;2023-02-28T03:40:20;3.30;99.90
52543;DHT22;38449;52.696;6.186;2023-02-28T03:42:48;3.40;99.90
52543;DHT22;38449;52.696;6.186;2023-02-28T03:45:17;3.30;99.90
52543;DHT22;38449;52.696;6.186;2023-02-28T03:47:46;3.30;99.90
52543;DHT22;38449;52.696;6.186;2023-02-28T03:50:20;3.30;99.90
52543;DHT22;38449;52.696;6.186;2023-02-28T03:52:53;3.30;99.90
52543;DHT22;38449;52.696;6.186;2023-02-28T03:55:21;3.30;99.90
52543;DHT22;38449;52.696;6.186;2023-02-28T03:57:56;3.30;99.90
52543;DHT22;38449;52.696;6.186;2023-02-28T04:00:27;3.20;99.90
52543;DHT22;38449;52.696;6.186;2023-02-28T04:02:55;3.20;99.90
52543;DHT22;38449;52.696;6.186;2023-02-28T04:05:21;3.30;99.90
52543;DHT22;38449;52.696;6.186;2023-02-28T04:07:48;3.30;99.90
52543;DHT22;38449;52.696;6.186;2023-02-28T04:10:15;3.20;99.90
52543;DHT22;38449;52.696;6.186;2023-02-28T04:13:21;3.20;99.90
52543;DHT22;38449;52.696;6.186;2023-02-28T04:16:01;3.20;99.90
52543;DHT22;38449;52.696;6.186;2023-02-28T04:18:35;3.10;99.90
52543;DHT22;38449;52.696;6.186;2023-02-28T04:21:02;3.20;99.90
52543;DHT22;38449;52.696;6.186;2023-02-28T04:23:29;3.10;99.90
52543;DHT22;38449;52.696;6.186;2023-02-28T04:25:56;3.20;99.90
52543;DHT22;38449;52.696;6.186;2023-02-28T04:28:22;3.10;99.90
52543;DHT22;38449;52.696;6.186;2023-02-28T04:30:53;3.20;99.90
52543;DHT22;38449;52.696;6.186;2023-02-28T04:33:19;3.10;99.90
52543;DHT22;38449;52.696;6.186;2023-02-28T04:35:46;3.10;99.90
52543;DHT22;38449;52.696;6.186;2023-02-28T04:38:12;3.10;99.90
52543;DHT22;38449;52.696;6.186;2023-02-28T04:40:38;3.10;99.90
52543;DHT22;38449;52.696;6.186;2023-02-28T04:43:04;3.10;99.90
52543;DHT22;38449;52.696;6.186;2023-02-28T04:45:30;3.10;99.90
52543;DHT22;38449;52.696;6.186;2023-02-28T04:47:58;3.00;99.90
52543;DHT22;38449;52.696;6.186;2023-02-28T04:50:24;3.00;99.90
52543;DHT22;38449;52.696;6.186;2023-02-28T04:52:50;3.00;99.90
52543;DHT22;38449;52.696;6.186;2023-02-28T04:55:16;3.00;99.90
52543;DHT22;38449;52.696;6.186;2023-02-28T04:57:42;3.00;99.90
52543;DHT22;38449;52.696;6.186;2023-02-28T05:00:09;2.90;99.90
52543;DHT22;38449;52.696;6.186;2023-02-28T05:02:37;2.90;99.90
52543;DHT22;38449;52.696;6.186;2023-02-28T05:05:04;2.90;99.90
52543;DHT22;38449;52.696;6.186;2023-02-28T05:07:30;2.90;99.90
52543;DHT22;38449;52.696;6.186;2023-02-28T05:09:56;2.90;99.90
52543;DHT22;38449;52.696;6.186;2023-02-28T05:12:23;2.90;99.90
52543;DHT22;38449;52.696;6.186;2023-02-28T05:14:49;2.90;99.90
52543;DHT22;38449;52.696;6.186;2023-02-28T05:17:15;2.90;99.90
52543;DHT22;38449;52.696;6.186;2023-02-28T05:19:41;3.00;99.90
52543;DHT22;38449;52.696;6.186;2023-02-28T05:22:12;2.90;99.90
52543;DHT22;38449;52.696;6.186;2023-02-28T05:24:38;3.00;99.90
52543;DHT22;38449;52.696;6.186;2023-02-28T05:27:04;2.90;99.90
52543;DHT22;38449;52.696;6.186;2023-02-28T05:29:31;2.90;99.90
52543;DHT22;38449;52.696;6.186;2023-02-28T05:31:57;2.90;99.90
52543;DHT22;38449;52.696;6.186;2023-02-28T05:34:23;2.90;99.90
52543;DHT22;38449;52.696;6.186;2023-02-28T05:36:49;3.00;99.90
52543;DHT22;38449;52.696;6.186;2023-02-28T05:39:15;3.00;99.90
52543;DHT22;38449;52.696;6.186;2023-02-28T05:41:41;3.00;99.90
52543;DHT22;38449;52.696;6.186;2023-02-28T05:44:08;2.90;99.90
52543;DHT22;38449;52.696;6.186;2023-02-28T05:46:34;2.90;99.90
52543;DHT22;38449;52.696;6.186;2023-02-28T05:49:01;2.90;99.90
52543;DHT22;38449;52.696;6.186;2023-02-28T05:51:27;2.90;99.90
52543;DHT22;38449;52.696;6.186;2023-02-28T05:53:53;2.80;99.90
52543;DHT22;38449;52.696;6.186;2023-02-28T05:56:19;2.90;99.90
52543;DHT22;38449;52.696;6.186;2023-02-28T05:58:46;2.80;99.90
52543;DHT22;38449;52.696;6.186;2023-02-28T06:01:19;2.70;99.90
52543;DHT22;38449;52.696;6.186;2023-02-28T06:03:46;2.70;99.90
52543;DHT22;38449;52.696;6.186;2023-02-28T06:06:12;2.60;99.90
52543;DHT22;38449;52.696;6.186;2023-02-28T06:08:38;2.70;99.90
52543;DHT22;38449;52.696;6.186;2023-02-28T06:11:04;2.60;99.90
52543;DHT22;38449;52.696;6.186;2023-02-28T06:13:31;2.60;99.90
52543;DHT22;38449;52.696;6.186;2023-02-28T06:16:00;2.70;99.90
52543;DHT22;38449;52.696;6.186;2023-02-28T06:18:26;2.70;99.90
52543;DHT22;38449;52.696;6.186;2023-02-28T06:20:53;2.60;99.90
52543;DHT22;38449;52.696;6.186;2023-02-28T06:23:20;2.60;99.90
52543;DHT22;38449;52.696;6.186;2023-02-28T06:25:46;2.60;99.90
52543;DHT22;38449;52.696;6.186;2023-02-28T06:28:13;2.60;99.90
52543;DHT22;38449;52.696;6.186;2023-02-28T06:30:39;2.70;99.90
52543;DHT22;38449;52.696;6.186;2023-02-28T06:33:05;2.70;99.90
52543;DHT22;38449;52.696;6.186;2023-02-28T06:35:31;2.70;99.90
52543;DHT22;38449;52.696;6.186;2023-02-28T06:37:57;2.70;99.90
52543;DHT22;38449;52.696;6.186;2023-02-28T06:40:23;2.60;99.90
52543;DHT22;38449;52.696;6.186;2023-02-28T06:42:49;2.60;99.90
52543;DHT22;38449;52.696;6.186;2023-02-28T06:45:16;2.50;99.90
52543;DHT22;38449;52.696;6.186;2023-02-28T06:47:42;2.60;99.90
52543;DHT22;38449;52.696;6.186;2023-02-28T06:50:09;2.60;99.90
52543;DHT22;38449;52.696;6.186;2023-02-28T06:52:37;2.50;99.90
52543;DHT22;38449;52.696;6.186;2023-02-28T06:55:06;2.60;99.90
52543;DHT22;38449;52.696;6.186;2023-02-28T06:57:33;2.60;99.90
52543;DHT22;38449;52.696;6.186;2023-02-28T07:00:00;2.60;99.90
52543;DHT22;38449;52.696;6.186;2023-02-28T07:02:27;2.60;99.90
52543;DHT22;38449;52.696;6.186;2023-02-28T07:04:53;2.60;99.90
52543;DHT22;38449;52.696;6.186;2023-02-28T07:07:19;2.50;99.90
52543;DHT22;38449;52.696;6.186;2023-02-28T07:09:46;2.60;99.90
52543;DHT22;38449;52.696;6.186;2023-02-28T07:12:12;2.60;99.90
52543;DHT22;38449;52.696;6.186;2023-02-28T07:14:38;2.70;99.90
52543;DHT22;38449;52.696;6.186;2023-02-28T07:17:06;2.70;99.90
52543;DHT22;38449;52.696;6.186;2023-02-28T07:19:32;2.80;99.90
52543;DHT22;38449;52.696;6.186;2023-02-28T07:21:58;2.70;99.90
52543;DHT22;38449;52.696;6.186;2023-02-28T07:24:25;2.90;99.90
52543;DHT22;38449;52.696;6.186;2023-02-28T07:26:54;2.80;99.90
52543;DHT22;38449;52.696;6.186;2023-02-28T07:29:20;2.90;99.90
52543;DHT22;38449;52.696;6.186;2023-02-28T07:31:46;3.00;99.90
52543;DHT22;38449;52.696;6.186;2023-02-28T07:34:13;3.00;99.90
52543;DHT22;38449;52.696;6.186;2023-02-28T07:36:39;2.90;99.90
52543;DHT22;38449;52.696;6.186;2023-02-28T07:39:05;3.00;99.90
52543;DHT22;38449;52.696;6.186;2023-02-28T07:41:32;3.00;99.90
52543;DHT22;38449;52.696;6.186;2023-02-28T07:43:59;3.00;99.90
52543;DHT22;38449;52.696;6.186;2023-02-28T07:46:26;3.00;99.90
52543;DHT22;38449;52.696;6.186;2023-02-28T07:48:52;3.00;99.90
52543;DHT22;38449;52.696;6.186;2023-02-28T07:51:21;3.00;99.90
52543;DHT22;38449;52.696;6.186;2023-02-28T07:53:48;3.10;99.90
52543;DHT22;38449;52.696;6.186;2023-02-28T07:56:14;3.10;99.90
52543;DHT22;38449;52.696;6.186;2023-02-28T07:58:40;3.00;99.90
52543;DHT22;38449;52.696;6.186;2023-02-28T08:01:07;3.10;99.90
52543;DHT22;38449;52.696;6.186;2023-02-28T08:03:33;3.20;99.90
52543;DHT22;38449;52.696;6.186;2023-02-28T08:05:59;3.20;99.90
52543;DHT22;38449;52.696;6.186;2023-02-28T08:08:26;3.20;99.90
52543;DHT22;38449;52.696;6.186;2023-02-28T08:10:55;3.30;99.90
52543;DHT22;38449;52.696;6.186;2023-02-28T08:13:21;3.40;99.90
52543;DHT22;38449;52.696;6.186;2023-02-28T08:15:47;3.40;99.90
52543;DHT22;38449;52.696;6.186;2023-02-28T08:18:13;3.40;99.90
52543;DHT22;38449;52.696;6.186;2023-02-28T08:20:39;3.30;99.90
52543;DHT22;38449;52.696;6.186;2023-02-28T08:23:06;3.50;99.90
52543;DHT22;38449;52.696;6.186;2023-02-28T08:25:32;3.50;99.90
52543;DHT22;38449;52.696;6.186;2023-02-28T08:27:58;3.50;99.90
52543;DHT22;38449;52.696;6.186;2023-02-28T08:30:24;3.60;99.90
52543;DHT22;38449;52.696;6.186;2023-02-28T08:32:50;3.60;99.90
52543;DHT22;38449;52.696;6.186;2023-02-28T08:35:17;3.70;99.90
52543;DHT22;38449;52.696;6.186;2023-02-28T08:37:43;3.70;99.90
52543;DHT22;38449;52.696;6.186;2023-02-28T08:40:09;3.80;99.90
52543;DHT22;38449;52.696;6.186;2023-02-28T08:42:35;4.00;99.90
52543;DHT22;38449;52.696;6.186;2023-02-28T08:45:02;4.00;99.90
52543;DHT22;38449;52.696;6.186;2023-02-28T08:47:28;4.00;99.90
52543;DHT22;38449;52.696;6.186;2023-02-28T08:49:54;4.20;99.90
52543;DHT22;38449;52.696;6.186;2023-02-28T08:52:20;4.40;99.90
52543;DHT22;38449;52.696;6.186;2023-02-28T08:54:46;4.70;99.90
52543;DHT22;38449;52.696;6.186;2023-02-28T08:57:12;4.90;99.90
52543;DHT22;38449;52.696;6.186;2023-02-28T08:59:39;4.90;99.90
52543;DHT22;38449;52.696;6.186;2023-02-28T09:02:05;5.00;99.90
52543;DHT22;38449;52.696;6.186;2023-02-28T09:04:31;5.00;99.90
52543;DHT22;38449;52.696;6.186;2023-02-28T09:06:59;4.90;99.90
52543;DHT22;38449;52.696;6.186;2023-02-28T09:09:25;5.00;99.90
52543;DHT22;38449;52.696;6.186;2023-02-28T09:11:51;4.80;99.90
52543;DHT22;38449;52.696;6.186;2023-02-28T09:14:17;4.80;99.90
52543;DHT22;38449;52.696;6.186;2023-02-28T09:16:43;4.80;99.90
52543;DHT22;38449;52.696;6.186;2023-02-28T09:19:13;4.80;99.90
52543;DHT22;38449;52.696;6.186;2023-02-28T09:21:39;4.90;99.90
52543;DHT22;38449;52.696;6.186;2023-02-28T09:24:05;5.00;99.90
52543;DHT22;38449;52.696;6.186;2023-02-28T09:26:31;5.00;99.90
52543;DHT22;38449;52.696;6.186;2023-02-28T09:28:58;5.00;99.90
52543;DHT22;38449;52.696;6.186;2023-02-28T09:31:28;5.10;99.90
52543;DHT22;38449;52.696;6.186;2023-02-28T09:33:55;5.10;99.90
52543;DHT22;38449;52.696;6.186;2023-02-28T09:36:22;5.10;99.90
52543;DHT22;38449;52.696;6.186;2023-02-28T09:38:49;5.20;99.90
52543;DHT22;38449;52.696;6.186;2023-02-28T09:41:18;5.20;99.90
52543;DHT22;38449;52.696;6.186;2023-02-28T09:43:46;5.10;99.90
52543;DHT22;38449;52.696;6.186;2023-02-28T09:46:30;5.20;99.90
52543;DHT22;38449;52.696;6.186;2023-02-28T09:48:57;5.30;99.90
52543;DHT22;38449;52.696;6.186;2023-02-28T09:51:33;5.30;99.90
52543;DHT22;38449;52.696;6.186;2023-02-28T09:54:01;5.30;99.90
52543;DHT22;38449;52.696;6.186;2023-02-28T09:56:31;5.40;99.90
52543;DHT22;38449;52.696;6.186;2023-02-28T10:01:40;5.60;99.90
52543;DHT22;38449;52.696;6.186;2023-02-28T10:04:10;5.70;99.90
52543;DHT22;38449;52.696;6.186;2023-02-28T10:06:40;5.70;99.90
52543;DHT22;38449;52.696;6.186;2023-02-28T10:09:14;5.80;99.90
52543;DHT22;38449;52.696;6.186;2023-02-28T10:11:41;5.80;99.90
52543;DHT22;38449;52.696;6.186;2023-02-28T10:14:17;5.70;99.90
52543;DHT22;38449;52.696;6.186;2023-02-28T10:19:37;6.00;99.90
52543;DHT22;38449;52.696;6.186;2023-02-28T10:22:06;6.10;99.90
52543;DHT22;38449;52.696;6.186;2023-02-28T10:27:12;6.00;99.90
52543;DHT22;38449;52.696;6.186;2023-02-28T10:29:39;6.20;99.90
52543;DHT22;38449;52.696;6.186;2023-02-28T10:32:06;6.30;99.90
52543;DHT22;38449;52.696;6.186;2023-02-28T10:34:32;6.30;99.90
52543;DHT22;38449;52.696;6.186;2023-02-28T10:36:58;6.30;99.90
52543;DHT22;38449;52.696;6.186;2023-02-28T10:39:43;6.20;99.90
52543;DHT22;38449;52.696;6.186;2023-02-28T10:42:23;6.20;99.90
52543;DHT22;38449;52.696;6.186;2023-02-28T10:47:38;6.40;99.90
52543;DHT22;38449;52.696;6.186;2023-02-28T10:50:26;6.40;99.90
52543;DHT22;38449;52.696;6.186;2023-02-28T10:52:53;6.50;99.90
52543;DHT22;38449;52.696;6.186;2023-02-28T10:55:23;6.60;99.90
52543;DHT22;38449;52.696;6.186;2023-02-28T10:57:51;6.60;99.90
52543;DHT22;38449;52.696;6.186;2023-02-28T11:00:19;6.70;99.90
52543;DHT22;38449;52.696;6.186;2023-02-28T11:02:45;6.70;99.90
52543;DHT22;38449;52.696;6.186;2023-02-28T11:05:23;6.40;99.90
52543;DHT22;38449;52.696;6.186;2023-02-28T11:07:54;6.60;99.90
52543;DHT22;38449;52.696;6.186;2023-02-28T11:10:20;6.70;99.90
52543;DHT22;38449;52.696;6.186;2023-02-28T11:12:49;6.80;99.90
52543;DHT22;38449;52.696;6.186;2023-02-28T11:15:22;6.80;99.90
52543;DHT22;38449;52.696;6.186;2023-02-28T11:17:57;6.90;99.90
52543;DHT22;38449;52.696;6.186;2023-02-28T11:20:25;6.90;99.90
52543;DHT22;38449;52.696;6.186;2023-02-28T11:22:52;6.90;99.90
52543;DHT22;38449;52.696;6.186;2023-02-28T11:25:24;6.90;99.90
52543;DHT22;38449;52.696;6.186;2023-02-28T11:27:52;7.00;99.90
52543;DHT22;38449;52.696;6.186;2023-02-28T11:31:03;7.00;99.90
52543;DHT22;38449;52.696;6.186;2023-02-28T11:33:18;7.10;99.90
52543;DHT22;38449;52.696;6.186;2023-02-28T11:35:46;7.20;99.90
52543;DHT22;38449;52.696;6.186;2023-02-28T11:38:14;7.30;99.90
52543;DHT22;38449;52.696;6.186;2023-02-28T11:46:04;7.30;99.90
52543;DHT22;38449;52.696;6.186;2023-02-28T11:51:13;7.40;99.90
52543;DHT22;38449;52.696;6.186;2023-02-28T11:53:48;7.00;99.90
52543;DHT22;38449;52.696;6.186;2023-02-28T12:01:33;6.90;99.90
52543;DHT22;38449;52.696;6.186;2023-02-28T12:06:50;7.10;99.90
52543;DHT22;38449;52.696;6.186;2023-02-28T12:09:23;7.10;99.90
52543;DHT22;38449;52.696;6.186;2023-02-28T12:22:28;7.30;99.90
52543;DHT22;38449;52.696;6.186;2023-02-28T12:27:41;7.30;99.90
52543;DHT22;38449;52.696;6.186;2023-02-28T12:32:45;7.40;99.90
52543;DHT22;38449;52.696;6.186;2023-02-28T12:35:15;7.20;99.90
52543;DHT22;38449;52.696;6.186;2023-02-28T12:40:21;7.20;99.90
52543;DHT22;38449;52.696;6.186;2023-02-28T12:47:47;7.00;98.70
52543;DHT22;38449;52.696;6.186;2023-02-28T12:50:14;7.00;99.90
52543;DHT22;38449;52.696;6.186;2023-02-28T12:52:49;7.10;99.90
52543;DHT22;38449;52.696;6.186;2023-02-28T12:55:22;7.10;99.20
52543;DHT22;38449;52.696;6.186;2023-02-28T13:00:29;7.00;99.40
52543;DHT22;38449;52.696;6.186;2023-02-28T13:03:03;7.00;99.50
52543;DHT22;38449;52.696;6.186;2023-02-28T13:08:25;7.20;99.90
52543;DHT22;38449;52.696;6.186;2023-02-28T13:10:48;7.20;99.90
52543;DHT22;38449;52.696;6.186;2023-02-28T13:13:23;7.20;99.90
52543;DHT22;38449;52.696;6.186;2023-02-28T13:15:56;7.20;99.90
52543;DHT22;38449;52.696;6.186;2023-02-28T13:18:33;7.30;99.60
52543;DHT22;38449;52.696;6.186;2023-02-28T13:21:02;7.20;99.80
52543;DHT22;38449;52.696;6.186;2023-02-28T13:26:09;7.10;99.20
52543;DHT22;38449;52.696;6.186;2023-02-28T13:31:19;7.30;97.60
52543;DHT22;38449;52.696;6.186;2023-02-28T13:38:44;7.20;99.50
52543;DHT22;38449;52.696;6.186;2023-02-28T13:46:28;7.10;98.10
52543;DHT22;38449;52.696;6.186;2023-02-28T13:48:54;7.10;98.70
52543;DHT22;38449;52.696;6.186;2023-02-28T13:54:00;7.20;98.90
52543;DHT22;38449;52.696;6.186;2023-02-28T13:56:35;7.20;98.70
52543;DHT22;38449;52.696;6.186;2023-02-28T13:59:16;7.20;98.50
52543;DHT22;38449;52.696;6.186;2023-02-28T14:01:52;7.30;98.10
52543;DHT22;38449;52.696;6.186;2023-02-28T14:07:04;7.30;98.20
52543;DHT22;38449;52.696;6.186;2023-02-28T14:09:32;7.20;98.20
52543;DHT22;38449;52.696;6.186;2023-02-28T14:17:14;7.10;99.00
52543;DHT22;38449;52.696;6.186;2023-02-28T14:19:44;7.20;97.90
52543;DHT22;38449;52.696;6.186;2023-02-28T14:22:16;7.20;98.90
52543;DHT22;38449;52.696;6.186;2023-02-28T14:35:53;7.10;98.80
52543;DHT22;38449;52.696;6.186;2023-02-28T14:38:31;7.00;99.30
52543;DHT22;38449;52.696;6.186;2023-02-28T14:40:58;7.10;99.90
52543;DHT22;38449;52.696;6.186;2023-02-28T14:43:27;7.10;99.80
52543;DHT22;38449;52.696;6.186;2023-02-28T14:45:54;7.10;99.50
52543;DHT22;38449;52.696;6.186;2023-02-28T14:48:21;7.30;98.10
52543;DHT22;38449;52.696;6.186;2023-02-28T14:50:48;7.20;98.40
52543;DHT22;38449;52.696;6.186;2023-02-28T14:53:18;7.20;98.80
52543;DHT22;38449;52.696;6.186;2023-02-28T14:55:45;7.20;99.10
52543;DHT22;38449;52.696;6.186;2023-02-28T14:58:28;7.10;99.60
52543;DHT22;38449;52.696;6.186;2023-02-28T15:00:56;7.10;98.90
52543;DHT22;38449;52.696;6.186;2023-02-28T15:05:58;7.10;99.40
52543;DHT22;38449;52.696;6.186;2023-02-28T15:08:25;7.20;97.70
52543;DHT22;38449;52.696;6.186;2023-02-28T15:13:21;7.20;97.60
52543;DHT22;38449;52.696;6.186;2023-02-28T15:15:53;7.10;98.40
52543;DHT22;38449;52.696;6.186;2023-02-28T15:18:28;7.00;98.10
52543;DHT22;38449;52.696;6.186;2023-02-28T15:21:02;7.00;98.50
52543;DHT22;38449;52.696;6.186;2023-02-28T15:23:29;7.00;98.30
52543;DHT22;38449;52.696;6.186;2023-02-28T15:25:56;7.00;97.50
52543;DHT22;38449;52.696;6.186;2023-02-28T15:28:22;7.00;97.60
52543;DHT22;38449;52.696;6.186;2023-02-28T15:30:53;7.00;98.30
52543;DHT22;38449;52.696;6.186;2023-02-28T15:33:21;7.10;97.70
52543;DHT22;38449;52.696;6.186;2023-02-28T15:35:47;7.00;98.10
52543;DHT22;38449;52.696;6.186;2023-02-28T15:38:23;7.00;98.40
52543;DHT22;38449;52.696;6.186;2023-02-28T15:40:54;7.00;98.80
52543;DHT22;38449;52.696;6.186;2023-02-28T15:43:27;6.90;98.60
52543;DHT22;38449;52.696;6.186;2023-02-28T15:46:03;6.90;98.50
52543;DHT22;38449;52.696;6.186;2023-02-28T15:48:34;7.00;98.50
52543;DHT22;38449;52.696;6.186;2023-02-28T15:53:45;6.90;98.60
52543;DHT22;38449;52.696;6.186;2023-02-28T15:56:20;7.00;99.00
52543;DHT22;38449;52.696;6.186;2023-02-28T15:58:47;7.00;99.30
52543;DHT22;38449;52.696;6.186;2023-02-28T16:01:23;7.00;99.40
52543;DHT22;38449;52.696;6.186;2023-02-28T16:03:51;6.90;99.70
52543;DHT22;38449;52.696;6.186;2023-02-28T16:06:26;6.90;99.90
52543;DHT22;38449;52.696;6.186;2023-02-28T16:08:54;6.80;99.80
52543;DHT22;38449;52.696;6.186;2023-02-28T16:11:21;6.80;99.80
52543;DHT22;38449;52.696;6.186;2023-02-28T16:13:47;7.00;99.50
52543;DHT22;38449;52.696;6.186;2023-02-28T16:16:18;6.90;99.90
52543;DHT22;38449;52.696;6.186;2023-02-28T16:18:45;6.80;99.90
52543;DHT22;38449;52.696;6.186;2023-02-28T16:21:11;6.90;99.80
52543;DHT22;38449;52.696;6.186;2023-02-28T16:23:37;6.80;99.90
52543;DHT22;38449;52.696;6.186;2023-02-28T16:26:04;6.80;99.90
52543;DHT22;38449;52.696;6.186;2023-02-28T16:28:31;6.70;99.90
52543;DHT22;38449;52.696;6.186;2023-02-28T16:31:00;6.70;99.90
52543;DHT22;38449;52.696;6.186;2023-02-28T16:33:29;6.70;99.90
52543;DHT22;38449;52.696;6.186;2023-02-28T16:35:55;6.70;99.90
52543;DHT22;38449;52.696;6.186;2023-02-28T16:38:21;6.60;99.90
52543;DHT22;38449;52.696;6.186;2023-02-28T16:40:49;6.60;99.90
52543;DHT22;38449;52.696;6.186;2023-02-28T16:43:19;6.60;99.90
52543;DHT22;38449;52.696;6.186;2023-02-28T16:45:48;6.50;99.90
52543;DHT22;38449;52.696;6.186;2023-02-28T16:48:15;6.50;99.90
52543;DHT22;38449;52.696;6.186;2023-02-28T16:50:41;6.50;99.90
52543;DHT22;38449;52.696;6.186;2023-02-28T16:53:09;6.50;99.90
52543;DHT22;38449;52.696;6.186;2023-02-28T16:55:35;6.50;99.90
52543;DHT22;38449;52.696;6.186;2023-02-28T16:58:02;6.40;99.90
52543;DHT22;38449;52.696;6.186;2023-02-28T17:00:29;6.30;99.90
52543;DHT22;38449;52.696;6.186;2023-02-28T17:02:57;6.30;99.90
52543;DHT22;38449;52.696;6.186;2023-02-28T17:05:25;6.30;99.90
52543;DHT22;38449;52.696;6.186;2023-02-28T17:07:51;6.40;99.90
52543;DHT22;38449;52.696;6.186;2023-02-28T17:10:22;6.50;99.90
52543;DHT22;38449;52.696;6.186;2023-02-28T17:12:48;6.40;99.90
52543;DHT22;38449;52.696;6.186;2023-02-28T17:15:16;6.40;99.90
52543;DHT22;38449;52.696;6.186;2023-02-28T17:17:42;6.40;99.90
52543;DHT22;38449;52.696;6.186;2023-02-28T17:20:12;6.50;99.90
52543;DHT22;38449;52.696;6.186;2023-02-28T17:22:39;6.70;99.90
52543;DHT22;38449;52.696;6.186;2023-02-28T17:25:05;6.70;99.90
52543;DHT22;38449;52.696;6.186;2023-02-28T17:27:31;6.70;99.90
52543;DHT22;38449;52.696;6.186;2023-02-28T17:29:57;6.50;99.90
52543;DHT22;38449;52.696;6.186;2023-02-28T17:32:24;6.40;99.90
52543;DHT22;38449;52.696;6.186;2023-02-28T17:34:50;6.40;99.90
52543;DHT22;38449;52.696;6.186;2023-02-28T17:37:16;6.20;99.90
52543;DHT22;38449;52.696;6.186;2023-02-28T17:39:42;6.10;99.90
52543;DHT22;38449;52.696;6.186;2023-02-28T17:42:08;6.20;99.90
52543;DHT22;38449;52.696;6.186;2023-02-28T17:44:34;6.00;99.90
52543;DHT22;38449;52.696;6.186;2023-02-28T17:47:00;5.90;99.90
52543;DHT22;38449;52.696;6.186;2023-02-28T17:49:27;5.90;99.90
52543;DHT22;38449;52.696;6.186;2023-02-28T17:51:53;5.70;99.90
52543;DHT22;38449;52.696;6.186;2023-02-28T17:54:19;5.70;99.90
52543;DHT22;38449;52.696;6.186;2023-02-28T17:56:45;5.80;99.90